sensor_id;sensor_type;location;lat;lon;timestamp;P1;durP1;ratioP1;P2;durP2;ratioP2
19189;SDS011;9727;50.200;19.038;2023-09-07T00:01:31;13.60;;;8.97;;
19189;SDS011;9727;50.200;19.038;2023-09-07T00:03:57;15.53;;;9.30;;
19189;SDS011;9727;50.200;19.038;2023-09-07T00:06:24;12.90;;;8.47;;
19189;SDS011;9727;50.200;19.038;2023-09-07T00:08:51;13.63;;;9.00;;
19189;SDS011;9727;50.200;19.038;2023-09-07T00:11:18;14.97;;;8.90;;
19189;SDS011;9727;50.200;19.038;2023-09-07T00:13:44;16.73;;;8.57;;
19189;SDS011;9727;50.200;19.038;2023-09-07T00:16:12;15.23;;;8.97;;
19189;SDS011;9727;50.200;19.038;2023-09-07T00:18:39;13.80;;;8.70;;
19189;SDS011;9727;50.200;19.038;2023-09-07T00:21:06;13.90;;;8.60;;
19189;SDS011;9727;50.200;19.038;2023-09-07T00:23:32;15.93;;;8.67;;
19189;SDS011;9727;50.200;19.038;2023-09-07T00:26:02;13.17;;;8.50;;
19189;SDS011;9727;50.200;19.038;2023-09-07T00:28:29;16.40;;;8.93;;
19189;SDS011;9727;50.200;19.038;2023-09-07T00:30:55;15.83;;;8.90;;
19189;SDS011;9727;50.200;19.038;2023-09-07T00:33:23;14.63;;;8.00;;
19189;SDS011;9727;50.200;19.038;2023-09-07T00:35:49;15.10;;;8.70;;
19189;SDS011;9727;50.200;19.038;2023-09-07T00:38:16;13.23;;;8.37;;
19189;SDS011;9727;50.200;19.038;2023-09-07T00:40:43;13.77;;;8.10;;
19189;SDS011;9727;50.200;19.038;2023-09-07T00:43:10;16.93;;;8.53;;
19189;SDS011;9727;50.200;19.038;2023-09-07T00:45:37;13.60;;;8.37;;
19189;SDS011;9727;50.200;19.038;2023-09-07T00:48:04;15.53;;;9.07;;
19189;SDS011;9727;50.200;19.038;2023-09-07T00:50:32;13.17;;;8.53;;
19189;SDS011;9727;50.200;19.038;2023-09-07T00:53:02;15.67;;;8.83;;
19189;SDS011;9727;50.200;19.038;2023-09-07T00:55:32;14.77;;;8.57;;
19189;SDS011;9727;50.200;19.038;2023-09-07T00:58:03;17.97;;;8.40;;
19189;SDS011;9727;50.200;19.038;2023-09-07T01:00:30;14.80;;;8.60;;
19189;SDS011;9727;50.200;19.038;2023-09-07T01:02:57;17.27;;;9.10;;
19189;SDS011;9727;50.200;19.038;2023-09-07T01:05:24;16.50;;;8.67;;
19189;SDS011;9727;50.200;19.038;2023-09-07T01:07:57;12.43;;;8.13;;
19189;SDS011;9727;50.200;19.038;2023-09-07T01:10:25;17.13;;;9.77;;
19189;SDS011;9727;50.200;19.038;2023-09-07T01:12:51;12.90;;;8.97;;
19189;SDS011;9727;50.200;19.038;2023-09-07T01:15:18;13.30;;;8.70;;
19189;SDS011;9727;50.200;19.038;2023-09-07T01:17:44;12.63;;;8.80;;
19189;SDS011;9727;50.200;19.038;2023-09-07T01:20:12;17.00;;;8.97;;
19189;SDS011;9727;50.200;19.038;2023-09-07T01:22:43;17.20;;;9.13;;
19189;SDS011;9727;50.200;19.038;2023-09-07T01:25:09;14.67;;;8.73;;
19189;SDS011;9727;50.200;19.038;2023-09-07T01:27:36;17.07;;;9.17;;
19189;SDS011;9727;50.200;19.038;2023-09-07T01:30:03;16.57;;;9.80;;
19189;SDS011;9727;50.200;19.038;2023-09-07T01:32:30;18.97;;;9.90;;
19189;SDS011;9727;50.200;19.038;2023-09-07T01:34:56;18.33;;;10.33;;
19189;SDS011;9727;50.200;19.038;2023-09-07T01:37:23;18.07;;;9.63;;
19189;SDS011;9727;50.200;19.038;2023-09-07T01:39:51;17.77;;;10.07;;
19189;SDS011;9727;50.200;19.038;2023-09-07T01:42:18;20.10;;;10.47;;
19189;SDS011;9727;50.200;19.038;2023-09-07T01:44:46;18.83;;;9.90;;
19189;SDS011;9727;50.200;19.038;2023-09-07T01:47:13;22.63;;;10.70;;
19189;SDS011;9727;50.200;19.038;2023-09-07T01:49:40;17.67;;;10.60;;
19189;SDS011;9727;50.200;19.038;2023-09-07T01:52:06;22.70;;;10.97;;
19189;SDS011;9727;50.200;19.038;2023-09-07T01:54:36;17.53;;;9.97;;
19189;SDS011;9727;50.200;19.038;2023-09-07T01:57:04;19.57;;;10.33;;
19189;SDS011;9727;50.200;19.038;2023-09-07T01:59:31;21.67;;;10.37;;
19189;SDS011;9727;50.200;19.038;2023-09-07T02:01:57;18.60;;;10.33;;
19189;SDS011;9727;50.200;19.038;2023-09-07T02:04:24;23.30;;;10.47;;
19189;SDS011;9727;50.200;19.038;2023-09-07T02:06:50;17.83;;;10.50;;
19189;SDS011;9727;50.200;19.038;2023-09-07T02:09:17;20.30;;;10.30;;
19189;SDS011;9727;50.200;19.038;2023-09-07T02:11:44;19.80;;;10.67;;
19189;SDS011;9727;50.200;19.038;2023-09-07T02:14:11;20.27;;;10.60;;
19189;SDS011;9727;50.200;19.038;2023-09-07T02:16:38;20.00;;;10.80;;
19189;SDS011;9727;50.200;19.038;2023-09-07T02:19:05;17.07;;;9.67;;
19189;SDS011;9727;50.200;19.038;2023-09-07T02:21:32;18.07;;;9.83;;
19189;SDS011;9727;50.200;19.038;2023-09-07T02:24:07;15.03;;;10.40;;
19189;SDS011;9727;50.200;19.038;2023-09-07T02:26:37;18.83;;;10.17;;
19189;SDS011;9727;50.200;19.038;2023-09-07T02:29:08;19.43;;;10.43;;
19189;SDS011;9727;50.200;19.038;2023-09-07T02:31:37;19.63;;;10.43;;
19189;SDS011;9727;50.200;19.038;2023-09-07T02:34:03;19.00;;;10.40;;
19189;SDS011;9727;50.200;19.038;2023-09-07T02:36:30;21.00;;;10.80;;
19189;SDS011;9727;50.200;19.038;2023-09-07T02:38:56;18.77;;;10.33;;
19189;SDS011;9727;50.200;19.038;2023-09-07T02:41:23;20.33;;;10.87;;
19189;SDS011;9727;50.200;19.038;2023-09-07T02:43:50;17.30;;;11.10;;
19189;SDS011;9727;50.200;19.038;2023-09-07T02:46:16;26.03;;;11.43;;
19189;SDS011;9727;50.200;19.038;2023-09-07T02:48:44;18.23;;;10.30;;
19189;SDS011;9727;50.200;19.038;2023-09-07T02:51:11;24.87;;;11.53;;
19189;SDS011;9727;50.200;19.038;2023-09-07T02:53:39;19.23;;;10.73;;
19189;SDS011;9727;50.200;19.038;2023-09-07T02:56:05;22.73;;;11.43;;
19189;SDS011;9727;50.200;19.038;2023-09-07T02:58:32;19.30;;;11.53;;
19189;SDS011;9727;50.200;19.038;2023-09-07T03:01:05;21.20;;;11.73;;
19189;SDS011;9727;50.200;19.038;2023-09-07T03:03:39;26.90;;;11.20;;
19189;SDS011;9727;50.200;19.038;2023-09-07T03:06:10;19.23;;;10.47;;
19189;SDS011;9727;50.200;19.038;2023-09-07T03:08:36;24.53;;;11.00;;
19189;SDS011;9727;50.200;19.038;2023-09-07T03:11:03;22.97;;;11.80;;
19189;SDS011;9727;50.200;19.038;2023-09-07T03:13:30;18.97;;;11.47;;
19189;SDS011;9727;50.200;19.038;2023-09-07T03:15:57;20.50;;;12.40;;
19189;SDS011;9727;50.200;19.038;2023-09-07T03:18:23;27.63;;;12.23;;
19189;SDS011;9727;50.200;19.038;2023-09-07T03:20:50;25.53;;;11.77;;
19189;SDS011;9727;50.200;19.038;2023-09-07T03:23:18;25.83;;;12.27;;
19189;SDS011;9727;50.200;19.038;2023-09-07T03:25:44;19.07;;;11.07;;
19189;SDS011;9727;50.200;19.038;2023-09-07T03:28:11;31.00;;;12.60;;
19189;SDS011;9727;50.200;19.038;2023-09-07T03:30:38;23.40;;;12.70;;
19189;SDS011;9727;50.200;19.038;2023-09-07T03:33:04;24.80;;;12.00;;
19189;SDS011;9727;50.200;19.038;2023-09-07T03:35:31;24.90;;;12.43;;
19189;SDS011;9727;50.200;19.038;2023-09-07T03:38:00;24.67;;;13.07;;
19189;SDS011;9727;50.200;19.038;2023-09-07T03:40:28;27.70;;;12.93;;
19189;SDS011;9727;50.200;19.038;2023-09-07T03:42:55;24.23;;;12.13;;
19189;SDS011;9727;50.200;19.038;2023-09-07T03:45:21;20.80;;;11.63;;
19189;SDS011;9727;50.200;19.038;2023-09-07T03:47:48;21.63;;;12.07;;
19189;SDS011;9727;50.200;19.038;2023-09-07T03:50:15;21.90;;;12.57;;
19189;SDS011;9727;50.200;19.038;2023-09-07T03:52:41;21.10;;;11.30;;
19189;SDS011;9727;50.200;19.038;2023-09-07T03:55:08;25.57;;;11.73;;
19189;SDS011;9727;50.200;19.038;2023-09-07T03:57:36;20.33;;;11.80;;
19189;SDS011;9727;50.200;19.038;2023-09-07T04:00:04;24.67;;;12.00;;
19189;SDS011;9727;50.200;19.038;2023-09-07T04:02:34;19.10;;;11.37;;
19189;SDS011;9727;50.200;19.038;2023-09-07T04:05:04;20.83;;;12.07;;
19189;SDS011;9727;50.200;19.038;2023-09-07T04:07:31;21.93;;;11.67;;
19189;SDS011;9727;50.200;19.038;2023-09-07T04:09:58;23.70;;;12.97;;
19189;SDS011;9727;50.200;19.038;2023-09-07T04:12:24;22.67;;;12.60;;
19189;SDS011;9727;50.200;19.038;2023-09-07T04:14:53;20.40;;;11.53;;
19189;SDS011;9727;50.200;19.038;2023-09-07T04:17:20;21.40;;;11.43;;
19189;SDS011;9727;50.200;19.038;2023-09-07T04:19:46;21.77;;;11.80;;
19189;SDS011;9727;50.200;19.038;2023-09-07T04:22:13;25.77;;;11.50;;
19189;SDS011;9727;50.200;19.038;2023-09-07T04:24:39;20.90;;;12.07;;
19189;SDS011;9727;50.200;19.038;2023-09-07T04:27:06;21.10;;;10.93;;
19189;SDS011;9727;50.200;19.038;2023-09-07T04:29:37;20.77;;;11.33;;
19189;SDS011;9727;50.200;19.038;2023-09-07T04:32:05;25.00;;;11.27;;
19189;SDS011;9727;50.200;19.038;2023-09-07T04:34:32;22.77;;;12.23;;
19189;SDS011;9727;50.200;19.038;2023-09-07T04:37:00;22.97;;;11.77;;
19189;SDS011;9727;50.200;19.038;2023-09-07T04:39:27;23.97;;;11.30;;
19189;SDS011;9727;50.200;19.038;2023-09-07T04:41:54;18.37;;;10.77;;
19189;SDS011;9727;50.200;19.038;2023-09-07T04:44:20;24.37;;;11.57;;
19189;SDS011;9727;50.200;19.038;2023-09-07T04:46:47;19.60;;;10.40;;
19189;SDS011;9727;50.200;19.038;2023-09-07T04:49:15;20.67;;;11.53;;
19189;SDS011;9727;50.200;19.038;2023-09-07T04:51:41;22.50;;;11.23;;
19189;SDS011;9727;50.200;19.038;2023-09-07T04:54:08;24.77;;;11.30;;
19189;SDS011;9727;50.200;19.038;2023-09-07T04:56:35;23.97;;;11.13;;
19189;SDS011;9727;50.200;19.038;2023-09-07T04:59:04;20.37;;;10.93;;
19189;SDS011;9727;50.200;19.038;2023-09-07T05:01:31;17.90;;;10.37;;
19189;SDS011;9727;50.200;19.038;2023-09-07T05:03:57;17.93;;;10.87;;
19189;SDS011;9727;50.200;19.038;2023-09-07T05:06:25;18.00;;;10.60;;
19189;SDS011;9727;50.200;19.038;2023-09-07T05:08:52;20.67;;;10.37;;
19189;SDS011;9727;50.200;19.038;2023-09-07T05:11:19;20.97;;;10.80;;
19189;SDS011;9727;50.200;19.038;2023-09-07T05:13:45;18.60;;;10.57;;
19189;SDS011;9727;50.200;19.038;2023-09-07T05:16:12;17.73;;;10.13;;
19189;SDS011;9727;50.200;19.038;2023-09-07T05:18:40;20.17;;;10.80;;
19189;SDS011;9727;50.200;19.038;2023-09-07T05:21:13;18.27;;;9.67;;
19189;SDS011;9727;50.200;19.038;2023-09-07T05:23:41;21.13;;;10.60;;
19189;SDS011;9727;50.200;19.038;2023-09-07T05:26:07;20.67;;;9.70;;
19189;SDS011;9727;50.200;19.038;2023-09-07T05:28:36;18.00;;;10.17;;
19189;SDS011;9727;50.200;19.038;2023-09-07T05:31:03;15.57;;;8.70;;
19189;SDS011;9727;50.200;19.038;2023-09-07T05:33:30;19.43;;;9.37;;
19189;SDS011;9727;50.200;19.038;2023-09-07T05:35:56;17.37;;;9.13;;
19189;SDS011;9727;50.200;19.038;2023-09-07T05:38:23;15.17;;;9.07;;
19189;SDS011;9727;50.200;19.038;2023-09-07T05:40:52;13.83;;;8.63;;
19189;SDS011;9727;50.200;19.038;2023-09-07T05:43:19;14.30;;;8.70;;
19189;SDS011;9727;50.200;19.038;2023-09-07T05:45:46;13.37;;;8.37;;
19189;SDS011;9727;50.200;19.038;2023-09-07T05:48:12;13.67;;;8.03;;
19189;SDS011;9727;50.200;19.038;2023-09-07T05:50:41;15.27;;;8.40;;
19189;SDS011;9727;50.200;19.038;2023-09-07T05:53:08;14.37;;;8.60;;
19189;SDS011;9727;50.200;19.038;2023-09-07T05:55:36;12.57;;;8.10;;
19189;SDS011;9727;50.200;19.038;2023-09-07T05:58:05;12.37;;;7.67;;
19189;SDS011;9727;50.200;19.038;2023-09-07T06:00:38;13.67;;;7.83;;
19189;SDS011;9727;50.200;19.038;2023-09-07T06:03:06;12.17;;;7.53;;
19189;SDS011;9727;50.200;19.038;2023-09-07T06:05:35;13.80;;;7.80;;
19189;SDS011;9727;50.200;19.038;2023-09-07T06:08:05;13.67;;;7.67;;
19189;SDS011;9727;50.200;19.038;2023-09-07T06:10:32;14.07;;;8.40;;
19189;SDS011;9727;50.200;19.038;2023-09-07T06:13:01;14.80;;;7.90;;
19189;SDS011;9727;50.200;19.038;2023-09-07T06:15:29;12.50;;;7.80;;
19189;SDS011;9727;50.200;19.038;2023-09-07T06:17:56;13.27;;;6.97;;
19189;SDS011;9727;50.200;19.038;2023-09-07T06:20:23;20.20;;;7.50;;
19189;SDS011;9727;50.200;19.038;2023-09-07T06:22:50;14.23;;;7.70;;
19189;SDS011;9727;50.200;19.038;2023-09-07T06:25:17;11.17;;;7.53;;
19189;SDS011;9727;50.200;19.038;2023-09-07T06:27:44;12.70;;;7.50;;
19189;SDS011;9727;50.200;19.038;2023-09-07T06:30:10;13.77;;;7.53;;
19189;SDS011;9727;50.200;19.038;2023-09-07T06:32:38;16.43;;;7.90;;
19189;SDS011;9727;50.200;19.038;2023-09-07T06:35:05;14.30;;;7.93;;
19189;SDS011;9727;50.200;19.038;2023-09-07T06:37:32;14.67;;;7.37;;
19189;SDS011;9727;50.200;19.038;2023-09-07T06:40:06;13.57;;;7.90;;
19189;SDS011;9727;50.200;19.038;2023-09-07T06:42:32;11.60;;;7.23;;
19189;SDS011;9727;50.200;19.038;2023-09-07T06:45:06;10.87;;;6.73;;
19189;SDS011;9727;50.200;19.038;2023-09-07T06:47:36;14.10;;;7.90;;
19189;SDS011;9727;50.200;19.038;2023-09-07T06:50:06;11.37;;;7.10;;
19189;SDS011;9727;50.200;19.038;2023-09-07T06:52:38;12.17;;;7.50;;
19189;SDS011;9727;50.200;19.038;2023-09-07T06:55:05;12.47;;;7.53;;
19189;SDS011;9727;50.200;19.038;2023-09-07T06:57:32;15.27;;;7.60;;
19189;SDS011;9727;50.200;19.038;2023-09-07T07:00:03;17.40;;;8.70;;
19189;SDS011;9727;50.200;19.038;2023-09-07T07:02:32;13.50;;;7.00;;
19189;SDS011;9727;50.200;19.038;2023-09-07T07:05:02;14.93;;;8.07;;
19189;SDS011;9727;50.200;19.038;2023-09-07T07:07:30;14.97;;;7.50;;
19189;SDS011;9727;50.200;19.038;2023-09-07T07:09:57;11.93;;;7.00;;
19189;SDS011;9727;50.200;19.038;2023-09-07T07:12:23;15.47;;;8.00;;
19189;SDS011;9727;50.200;19.038;2023-09-07T07:14:55;11.98;;;7.38;;
19189;SDS011;9727;50.200;19.038;2023-09-07T07:17:22;14.07;;;7.50;;
19189;SDS011;9727;50.200;19.038;2023-09-07T07:19:48;13.33;;;7.17;;
19189;SDS011;9727;50.200;19.038;2023-09-07T07:22:15;12.10;;;7.40;;
19189;SDS011;9727;50.200;19.038;2023-09-07T07:24:43;14.82;;;8.32;;
19189;SDS011;9727;50.200;19.038;2023-09-07T07:27:10;11.53;;;8.00;;
19189;SDS011;9727;50.200;19.038;2023-09-07T07:29:37;13.20;;;7.13;;
19189;SDS011;9727;50.200;19.038;2023-09-07T07:32:04;10.60;;;7.72;;
19189;SDS011;9727;50.200;19.038;2023-09-07T07:34:30;15.02;;;7.15;;
19189;SDS011;9727;50.200;19.038;2023-09-07T07:36:57;13.77;;;6.85;;
19189;SDS011;9727;50.200;19.038;2023-09-07T07:39:28;14.07;;;6.60;;
19189;SDS011;9727;50.200;19.038;2023-09-07T07:41:56;12.32;;;6.45;;
19189;SDS011;9727;50.200;19.038;2023-09-07T07:44:23;11.23;;;6.85;;
19189;SDS011;9727;50.200;19.038;2023-09-07T07:46:50;12.00;;;6.57;;
19189;SDS011;9727;50.200;19.038;2023-09-07T07:49:16;10.10;;;6.40;;
19189;SDS011;9727;50.200;19.038;2023-09-07T07:51:43;12.05;;;6.60;;
19189;SDS011;9727;50.200;19.038;2023-09-07T07:54:10;9.30;;;5.97;;
19189;SDS011;9727;50.200;19.038;2023-09-07T07:56:48;12.13;;;6.57;;
19189;SDS011;9727;50.200;19.038;2023-09-07T07:59:16;12.48;;;6.82;;
19189;SDS011;9727;50.200;19.038;2023-09-07T08:01:42;11.63;;;6.78;;
19189;SDS011;9727;50.200;19.038;2023-09-07T08:04:09;13.23;;;6.40;;
19189;SDS011;9727;50.200;19.038;2023-09-07T08:06:37;9.30;;;5.93;;
19189;SDS011;9727;50.200;19.038;2023-09-07T08:09:04;11.02;;;6.45;;
19189;SDS011;9727;50.200;19.038;2023-09-07T08:11:31;12.52;;;6.32;;
19189;SDS011;9727;50.200;19.038;2023-09-07T08:13:57;8.68;;;5.57;;
19189;SDS011;9727;50.200;19.038;2023-09-07T08:16:25;16.52;;;6.43;;
19189;SDS011;9727;50.200;19.038;2023-09-07T08:18:52;9.73;;;6.00;;
19189;SDS011;9727;50.200;19.038;2023-09-07T08:21:21;8.23;;;5.85;;
19189;SDS011;9727;50.200;19.038;2023-09-07T08:23:47;7.75;;;5.90;;
19189;SDS011;9727;50.200;19.038;2023-09-07T08:26:14;8.10;;;5.32;;
19189;SDS011;9727;50.200;19.038;2023-09-07T08:28:41;7.32;;;5.35;;
19189;SDS011;9727;50.200;19.038;2023-09-07T08:31:11;9.25;;;5.38;;
19189;SDS011;9727;50.200;19.038;2023-09-07T08:33:41;9.20;;;5.57;;
19189;SDS011;9727;50.200;19.038;2023-09-07T08:36:07;6.28;;;4.75;;
19189;SDS011;9727;50.200;19.038;2023-09-07T08:38:37;8.75;;;5.45;;
19189;SDS011;9727;50.200;19.038;2023-09-07T08:41:04;6.82;;;5.10;;
19189;SDS011;9727;50.200;19.038;2023-09-07T08:43:32;7.85;;;5.43;;
19189;SDS011;9727;50.200;19.038;2023-09-07T08:46:04;7.07;;;5.18;;
19189;SDS011;9727;50.200;19.038;2023-09-07T08:48:41;7.63;;;5.45;;
19189;SDS011;9727;50.200;19.038;2023-09-07T08:51:08;6.85;;;5.07;;
19189;SDS011;9727;50.200;19.038;2023-09-07T08:53:38;7.85;;;5.50;;
19189;SDS011;9727;50.200;19.038;2023-09-07T08:56:11;7.20;;;5.22;;
19189;SDS011;9727;50.200;19.038;2023-09-07T08:58:38;6.85;;;5.25;;
19189;SDS011;9727;50.200;19.038;2023-09-07T09:01:08;8.23;;;4.90;;
19189;SDS011;9727;50.200;19.038;2023-09-07T09:03:39;6.32;;;5.10;;
19189;SDS011;9727;50.200;19.038;2023-09-07T09:06:10;8.18;;;5.43;;
19189;SDS011;9727;50.200;19.038;2023-09-07T09:08:43;10.77;;;5.95;;
19189;SDS011;9727;50.200;19.038;2023-09-07T09:11:10;9.07;;;5.43;;
19189;SDS011;9727;50.200;19.038;2023-09-07T09:13:39;6.82;;;5.10;;
19189;SDS011;9727;50.200;19.038;2023-09-07T09:16:06;7.95;;;5.30;;
19189;SDS011;9727;50.200;19.038;2023-09-07T09:18:32;8.25;;;5.03;;
19189;SDS011;9727;50.200;19.038;2023-09-07T09:21:06;6.97;;;5.25;;
19189;SDS011;9727;50.200;19.038;2023-09-07T09:23:43;8.10;;;4.68;;
19189;SDS011;9727;50.200;19.038;2023-09-07T09:26:10;7.78;;;4.88;;
19189;SDS011;9727;50.200;19.038;2023-09-07T09:28:37;5.68;;;4.53;;
19189;SDS011;9727;50.200;19.038;2023-09-07T09:31:04;6.88;;;4.80;;
19189;SDS011;9727;50.200;19.038;2023-09-07T09:33:38;6.15;;;4.82;;
19189;SDS011;9727;50.200;19.038;2023-09-07T09:36:08;6.28;;;4.63;;
19189;SDS011;9727;50.200;19.038;2023-09-07T09:38:46;8.35;;;4.57;;
19189;SDS011;9727;50.200;19.038;2023-09-07T09:41:14;5.82;;;4.53;;
19189;SDS011;9727;50.200;19.038;2023-09-07T09:43:46;8.25;;;5.10;;
19189;SDS011;9727;50.200;19.038;2023-09-07T09:46:14;8.88;;;4.30;;
19189;SDS011;9727;50.200;19.038;2023-09-07T09:48:41;5.97;;;4.55;;
19189;SDS011;9727;50.200;19.038;2023-09-07T09:51:08;9.27;;;4.75;;
19189;SDS011;9727;50.200;19.038;2023-09-07T09:53:38;7.72;;;4.50;;
19189;SDS011;9727;50.200;19.038;2023-09-07T09:56:06;7.13;;;4.75;;
19189;SDS011;9727;50.200;19.038;2023-09-07T09:58:37;8.50;;;4.70;;
19189;SDS011;9727;50.200;19.038;2023-09-07T10:01:06;7.30;;;4.32;;
19189;SDS011;9727;50.200;19.038;2023-09-07T10:03:40;6.40;;;4.65;;
19189;SDS011;9727;50.200;19.038;2023-09-07T10:06:11;6.30;;;5.07;;
19189;SDS011;9727;50.200;19.038;2023-09-07T10:08:43;9.02;;;5.15;;
19189;SDS011;9727;50.200;19.038;2023-09-07T10:11:25;6.93;;;4.30;;
19189;SDS011;9727;50.200;19.038;2023-09-07T10:13:56;7.38;;;4.28;;
19189;SDS011;9727;50.200;19.038;2023-09-07T10:16:23;6.80;;;4.85;;
19189;SDS011;9727;50.200;19.038;2023-09-07T10:18:54;8.90;;;4.80;;
19189;SDS011;9727;50.200;19.038;2023-09-07T10:21:23;8.52;;;4.63;;
19189;SDS011;9727;50.200;19.038;2023-09-07T10:23:51;6.68;;;4.60;;
19189;SDS011;9727;50.200;19.038;2023-09-07T10:26:19;6.50;;;4.57;;
19189;SDS011;9727;50.200;19.038;2023-09-07T10:28:47;6.35;;;4.57;;
19189;SDS011;9727;50.200;19.038;2023-09-07T10:31:17;6.40;;;4.60;;
19189;SDS011;9727;50.200;19.038;2023-09-07T10:33:44;8.07;;;4.60;;
19189;SDS011;9727;50.200;19.038;2023-09-07T10:36:22;5.97;;;4.60;;
19189;SDS011;9727;50.200;19.038;2023-09-07T10:38:49;8.88;;;5.03;;
19189;SDS011;9727;50.200;19.038;2023-09-07T10:41:19;6.57;;;4.80;;
19189;SDS011;9727;50.200;19.038;2023-09-07T10:43:47;5.07;;;4.22;;
19189;SDS011;9727;50.200;19.038;2023-09-07T10:46:14;6.93;;;5.00;;
19189;SDS011;9727;50.200;19.038;2023-09-07T10:48:40;10.20;;;5.32;;
19189;SDS011;9727;50.200;19.038;2023-09-07T10:51:08;9.73;;;4.30;;
19189;SDS011;9727;50.200;19.038;2023-09-07T10:53:39;5.25;;;4.38;;
19189;SDS011;9727;50.200;19.038;2023-09-07T10:56:07;6.55;;;4.05;;
19189;SDS011;9727;50.200;19.038;2023-09-07T10:58:41;6.30;;;4.50;;
19189;SDS011;9727;50.200;19.038;2023-09-07T11:01:09;6.65;;;4.18;;
19189;SDS011;9727;50.200;19.038;2023-09-07T11:03:47;4.97;;;3.90;;
19189;SDS011;9727;50.200;19.038;2023-09-07T11:06:14;5.45;;;4.32;;
19189;SDS011;9727;50.200;19.038;2023-09-07T11:08:42;7.03;;;4.30;;
19189;SDS011;9727;50.200;19.038;2023-09-07T11:11:12;4.97;;;4.15;;
19189;SDS011;9727;50.200;19.038;2023-09-07T11:13:41;6.47;;;4.47;;
19189;SDS011;9727;50.200;19.038;2023-09-07T11:16:07;7.22;;;4.28;;
19189;SDS011;9727;50.200;19.038;2023-09-07T11:18:37;4.20;;;3.80;;
19189;SDS011;9727;50.200;19.038;2023-09-07T11:21:12;6.40;;;4.32;;
19189;SDS011;9727;50.200;19.038;2023-09-07T11:23:39;5.10;;;4.20;;
19189;SDS011;9727;50.200;19.038;2023-09-07T11:26:10;5.43;;;4.32;;
19189;SDS011;9727;50.200;19.038;2023-09-07T11:28:44;6.82;;;3.78;;
19189;SDS011;9727;50.200;19.038;2023-09-07T11:31:17;6.88;;;4.47;;
19189;SDS011;9727;50.200;19.038;2023-09-07T11:33:44;5.07;;;4.50;;
19189;SDS011;9727;50.200;19.038;2023-09-07T11:36:12;6.60;;;4.70;;
19189;SDS011;9727;50.200;19.038;2023-09-07T11:38:42;7.28;;;4.30;;
19189;SDS011;9727;50.200;19.038;2023-09-07T11:41:08;6.70;;;4.40;;
19189;SDS011;9727;50.200;19.038;2023-09-07T11:43:37;6.82;;;4.47;;
19189;SDS011;9727;50.200;19.038;2023-09-07T11:46:06;7.32;;;4.40;;
19189;SDS011;9727;50.200;19.038;2023-09-07T11:48:35;6.57;;;4.68;;
19189;SDS011;9727;50.200;19.038;2023-09-07T11:51:03;6.25;;;4.20;;
19189;SDS011;9727;50.200;19.038;2023-09-07T11:53:38;5.25;;;4.32;;
19189;SDS011;9727;50.200;19.038;2023-09-07T11:56:06;5.32;;;4.18;;
19189;SDS011;9727;50.200;19.038;2023-09-07T11:58:41;5.35;;;4.57;;
19189;SDS011;9727;50.200;19.038;2023-09-07T12:01:10;7.03;;;4.68;;
19189;SDS011;9727;50.200;19.038;2023-09-07T12:03:37;5.82;;;4.60;;
19189;SDS011;9727;50.200;19.038;2023-09-07T12:06:03;7.00;;;4.40;;
19189;SDS011;9727;50.200;19.038;2023-09-07T12:08:30;6.35;;;4.68;;
19189;SDS011;9727;50.200;19.038;2023-09-07T12:10:56;8.73;;;5.35;;
19189;SDS011;9727;50.200;19.038;2023-09-07T12:13:23;6.72;;;5.07;;
19189;SDS011;9727;50.200;19.038;2023-09-07T12:15:51;6.00;;;4.60;;
19189;SDS011;9727;50.200;19.038;2023-09-07T12:18:19;7.45;;;5.20;;
19189;SDS011;9727;50.200;19.038;2023-09-07T12:20:46;5.93;;;4.82;;
19189;SDS011;9727;50.200;19.038;2023-09-07T12:23:13;7.82;;;4.65;;
19189;SDS011;9727;50.200;19.038;2023-09-07T12:25:39;7.43;;;4.60;;
19189;SDS011;9727;50.200;19.038;2023-09-07T12:28:06;5.68;;;3.75;;
19189;SDS011;9727;50.200;19.038;2023-09-07T12:30:40;4.97;;;4.03;;
19189;SDS011;9727;50.200;19.038;2023-09-07T12:33:10;6.93;;;4.60;;
19189;SDS011;9727;50.200;19.038;2023-09-07T12:35:40;7.63;;;4.68;;
19189;SDS011;9727;50.200;19.038;2023-09-07T12:38:07;7.25;;;4.57;;
19189;SDS011;9727;50.200;19.038;2023-09-07T12:40:39;5.05;;;4.03;;
19189;SDS011;9727;50.200;19.038;2023-09-07T12:43:06;6.20;;;4.05;;
19189;SDS011;9727;50.200;19.038;2023-09-07T12:45:39;4.88;;;3.90;;
19189;SDS011;9727;50.200;19.038;2023-09-07T12:48:07;8.35;;;4.00;;
19189;SDS011;9727;50.200;19.038;2023-09-07T12:50:49;5.18;;;4.40;;
19189;SDS011;9727;50.200;19.038;2023-09-07T12:53:18;7.82;;;4.10;;
19189;SDS011;9727;50.200;19.038;2023-09-07T12:55:49;6.55;;;4.32;;
19189;SDS011;9727;50.200;19.038;2023-09-07T12:58:17;6.03;;;4.35;;
19189;SDS011;9727;50.200;19.038;2023-09-07T13:00:44;5.95;;;4.13;;
19189;SDS011;9727;50.200;19.038;2023-09-07T13:03:13;7.78;;;4.57;;
19189;SDS011;9727;50.200;19.038;2023-09-07T13:05:39;7.78;;;4.47;;
19189;SDS011;9727;50.200;19.038;2023-09-07T13:08:10;5.72;;;4.20;;
19189;SDS011;9727;50.200;19.038;2023-09-07T13:10:40;6.03;;;4.07;;
19189;SDS011;9727;50.200;19.038;2023-09-07T13:13:07;6.10;;;4.20;;
19189;SDS011;9727;50.200;19.038;2023-09-07T13:15:39;5.03;;;4.13;;
19189;SDS011;9727;50.200;19.038;2023-09-07T13:18:05;6.45;;;3.97;;
19189;SDS011;9727;50.200;19.038;2023-09-07T13:20:32;4.88;;;3.75;;
19189;SDS011;9727;50.200;19.038;2023-09-07T13:23:02;5.00;;;4.13;;
19189;SDS011;9727;50.200;19.038;2023-09-07T13:25:38;5.70;;;3.75;;
19189;SDS011;9727;50.200;19.038;2023-09-07T13:28:06;4.30;;;3.53;;
19189;SDS011;9727;50.200;19.038;2023-09-07T13:30:37;6.47;;;4.28;;
19189;SDS011;9727;50.200;19.038;2023-09-07T13:33:04;6.25;;;4.32;;
19189;SDS011;9727;50.200;19.038;2023-09-07T13:35:31;5.55;;;4.22;;
19189;SDS011;9727;50.200;19.038;2023-09-07T13:37:58;7.47;;;4.30;;
19189;SDS011;9727;50.200;19.038;2023-09-07T13:40:25;7.50;;;4.10;;
19189;SDS011;9727;50.200;19.038;2023-09-07T13:42:56;5.85;;;4.85;;
19189;SDS011;9727;50.200;19.038;2023-09-07T13:45:22;10.15;;;4.30;;
19189;SDS011;9727;50.200;19.038;2023-09-07T13:47:49;5.28;;;4.20;;
19189;SDS011;9727;50.200;19.038;2023-09-07T13:50:15;5.65;;;4.00;;
19189;SDS011;9727;50.200;19.038;2023-09-07T13:52:42;5.10;;;4.40;;
19189;SDS011;9727;50.200;19.038;2023-09-07T13:55:08;4.38;;;3.97;;
19189;SDS011;9727;50.200;19.038;2023-09-07T13:57:37;5.47;;;4.30;;
19189;SDS011;9727;50.200;19.038;2023-09-07T14:00:05;4.78;;;3.95;;
19189;SDS011;9727;50.200;19.038;2023-09-07T14:02:32;6.68;;;5.10;;
19189;SDS011;9727;50.200;19.038;2023-09-07T14:05:08;6.75;;;3.67;;
19189;SDS011;9727;50.200;19.038;2023-09-07T14:07:36;5.25;;;4.10;;
19189;SDS011;9727;50.200;19.038;2023-09-07T14:10:03;7.45;;;4.13;;
19189;SDS011;9727;50.200;19.038;2023-09-07T14:12:39;5.28;;;3.88;;
19189;SDS011;9727;50.200;19.038;2023-09-07T14:15:10;6.35;;;4.35;;
19189;SDS011;9727;50.200;19.038;2023-09-07T14:17:37;7.75;;;3.88;;
19189;SDS011;9727;50.200;19.038;2023-09-07T14:20:07;5.60;;;3.85;;
19189;SDS011;9727;50.200;19.038;2023-09-07T14:22:36;7.40;;;4.10;;
19189;SDS011;9727;50.200;19.038;2023-09-07T14:25:03;4.18;;;3.50;;
19189;SDS011;9727;50.200;19.038;2023-09-07T14:27:31;5.10;;;3.83;;
19189;SDS011;9727;50.200;19.038;2023-09-07T14:29:57;4.82;;;3.70;;
19189;SDS011;9727;50.200;19.038;2023-09-07T14:32:25;6.20;;;3.85;;
19189;SDS011;9727;50.200;19.038;2023-09-07T14:34:55;7.15;;;4.15;;
19189;SDS011;9727;50.200;19.038;2023-09-07T14:37:21;7.22;;;4.25;;
19189;SDS011;9727;50.200;19.038;2023-09-07T14:39:49;6.63;;;4.15;;
19189;SDS011;9727;50.200;19.038;2023-09-07T14:42:16;6.88;;;4.70;;